sensor_id;sensor_type;location;lat;lon;timestamp;pressure;altitude;pressure_sealevel;temperature;humidity
20955;BME280;10636;19.390;-99.256;2022-07-10T00:00:11;78183.38;;;25.16;42.74
20955;BME280;10636;19.390;-99.256;2022-07-10T00:02:41;78185.91;;;25.12;42.54
20955;BME280;10636;19.390;-99.256;2022-07-10T00:05:11;78182.53;;;25.11;42.57
20955;BME280;10636;19.390;-99.256;2022-07-10T00:07:41;78193.09;;;25.07;43.09
20955;BME280;10636;19.390;-99.256;2022-07-10T00:10:10;78194.97;;;25.04;42.74
20955;BME280;10636;19.390;-99.256;2022-07-10T00:12:39;78203.56;;;25.01;43.32
20955;BME280;10636;19.390;-99.256;2022-07-10T00:15:08;78198.81;;;24.99;42.89
20955;BME280;10636;19.390;-99.256;2022-07-10T00:17:36;78193.44;;;24.99;43.62
20955;BME280;10636;19.390;-99.256;2022-07-10T00:20:06;78203.81;;;25.07;43.73
20955;BME280;10636;19.390;-99.256;2022-07-10T00:22:35;78199.16;;;25.08;43.62
20955;BME280;10636;19.390;-99.256;2022-07-10T00:25:07;78200.53;;;25.09;43.01
20955;BME280;10636;19.390;-99.256;2022-07-10T00:27:37;78209.19;;;25.07;43.31
20955;BME280;10636;19.390;-99.256;2022-07-10T00:30:06;78215.94;;;25.08;43.41
20955;BME280;10636;19.390;-99.256;2022-07-10T00:32:35;78213.88;;;25.07;43.11
20955;BME280;10636;19.390;-99.256;2022-07-10T00:35:04;78226.59;;;25.06;42.99
20955;BME280;10636;19.390;-99.256;2022-07-10T00:37:33;78236.50;;;25.03;43.69
20955;BME280;10636;19.390;-99.256;2022-07-10T00:40:03;78233.94;;;25.06;43.78
20955;BME280;10636;19.390;-99.256;2022-07-10T00:42:34;78239.88;;;25.04;43.84
20955;BME280;10636;19.390;-99.256;2022-07-10T00:45:03;78234.66;;;25.06;43.88
20955;BME280;10636;19.390;-99.256;2022-07-10T00:47:32;78234.81;;;25.10;43.69
20955;BME280;10636;19.390;-99.256;2022-07-10T00:50:00;78230.16;;;25.11;43.65
20955;BME280;10636;19.390;-99.256;2022-07-10T00:52:30;78223.53;;;25.14;43.47
20955;BME280;10636;19.390;-99.256;2022-07-10T00:54:59;78220.28;;;25.15;43.94
20955;BME280;10636;19.390;-99.256;2022-07-10T00:57:28;78229.59;;;25.14;43.86
20955;BME280;10636;19.390;-99.256;2022-07-10T00:59:58;78218.88;;;25.14;43.59
20955;BME280;10636;19.390;-99.256;2022-07-10T01:02:27;78222.94;;;25.15;44.06
20955;BME280;10636;19.390;-99.256;2022-07-10T01:04:57;78225.72;;;25.17;43.58
20955;BME280;10636;19.390;-99.256;2022-07-10T01:07:25;78233.75;;;25.17;44.11
20955;BME280;10636;19.390;-99.256;2022-07-10T01:09:54;78227.09;;;25.18;43.74
20955;BME280;10636;19.390;-99.256;2022-07-10T01:12:26;78230.47;;;25.19;43.63
20955;BME280;10636;19.390;-99.256;2022-07-10T01:14:57;78235.16;;;25.18;43.73
20955;BME280;10636;19.390;-99.256;2022-07-10T01:17:27;78240.50;;;25.18;43.82
20955;BME280;10636;19.390;-99.256;2022-07-10T01:19:56;78244.56;;;25.19;43.83
20955;BME280;10636;19.390;-99.256;2022-07-10T01:22:26;78251.31;;;25.20;43.87
20955;BME280;10636;19.390;-99.256;2022-07-10T01:24:54;78254.72;;;25.21;43.74
20955;BME280;10636;19.390;-99.256;2022-07-10T01:27:23;78256.09;;;25.22;43.91
20955;BME280;10636;19.390;-99.256;2022-07-10T01:29:53;78262.16;;;25.22;43.70
20955;BME280;10636;19.390;-99.256;2022-07-10T01:32:22;78267.53;;;25.22;43.95
20955;BME280;10636;19.390;-99.256;2022-07-10T01:34:50;78269.59;;;25.24;43.74
20955;BME280;10636;19.390;-99.256;2022-07-10T01:37:19;78266.22;;;25.23;43.88
20955;BME280;10636;19.390;-99.256;2022-07-10T01:39:49;78272.91;;;25.22;43.88
20955;BME280;10636;19.390;-99.256;2022-07-10T01:42:17;78280.34;;;25.24;43.85
20955;BME280;10636;19.390;-99.256;2022-07-10T01:44:45;78280.84;;;25.20;44.25
20955;BME280;10636;19.390;-99.256;2022-07-10T01:47:14;78278.16;;;25.20;44.25
20955;BME280;10636;19.390;-99.256;2022-07-10T01:49:42;78276.78;;;25.19;44.25
20955;BME280;10636;19.390;-99.256;2022-07-10T01:52:11;78282.06;;;25.17;44.35
20955;BME280;10636;19.390;-99.256;2022-07-10T01:54:39;78263.91;;;25.16;44.83
20955;BME280;10636;19.390;-99.256;2022-07-10T01:57:09;78264.50;;;25.14;44.51
20955;BME280;10636;19.390;-99.256;2022-07-10T01:59:38;78264.50;;;25.14;44.44
20955;BME280;10636;19.390;-99.256;2022-07-10T02:02:07;78275.22;;;25.14;44.78
20955;BME280;10636;19.390;-99.256;2022-07-10T02:04:36;78276.53;;;25.13;44.81
20955;BME280;10636;19.390;-99.256;2022-07-10T02:07:08;78259.91;;;25.01;44.49
20955;BME280;10636;19.390;-99.256;2022-07-10T02:09:38;78286.56;;;25.13;44.64
20955;BME280;10636;19.390;-99.256;2022-07-10T02:12:09;78285.88;;;25.12;45.02
20955;BME280;10636;19.390;-99.256;2022-07-10T02:14:38;78285.88;;;25.12;45.05
20955;BME280;10636;19.390;-99.256;2022-07-10T02:17:08;78293.31;;;25.14;45.12
20955;BME280;10636;19.390;-99.256;2022-07-10T02:19:37;78299.38;;;25.14;45.30
20955;BME280;10636;19.390;-99.256;2022-07-10T02:22:06;78298.00;;;25.13;45.11
20955;BME280;10636;19.390;-99.256;2022-07-10T02:24:34;78304.69;;;25.12;45.09
20955;BME280;10636;19.390;-99.256;2022-07-10T02:27:03;78310.03;;;25.12;45.15
20955;BME280;10636;19.390;-99.256;2022-07-10T02:29:33;78305.97;;;25.11;45.54
20955;BME280;10636;19.390;-99.256;2022-07-10T02:32:02;78315.34;;;25.10;45.36
20955;BME280;10636;19.390;-99.256;2022-07-10T02:34:31;78315.34;;;25.10;45.42
20955;BME280;10636;19.390;-99.256;2022-07-10T02:36:59;78328.03;;;25.10;45.22
20955;BME280;10636;19.390;-99.256;2022-07-10T02:39:28;78330.66;;;25.08;45.09
20955;BME280;10636;19.390;-99.256;2022-07-10T02:41:56;78337.38;;;25.09;44.90
20955;BME280;10636;19.390;-99.256;2022-07-10T02:44:24;78343.38;;;25.07;45.28
20955;BME280;10636;19.390;-99.256;2022-07-10T02:46:54;78342.00;;;25.06;45.41
20955;BME280;10636;19.390;-99.256;2022-07-10T02:49:23;78333.81;;;25.04;45.65
20955;BME280;10636;19.390;-99.256;2022-07-10T02:51:51;78342.00;;;25.06;45.13
20955;BME280;10636;19.390;-99.256;2022-07-10T02:54:20;78339.88;;;25.04;45.50
20955;BME280;10636;19.390;-99.256;2022-07-10T02:56:51;78339.31;;;25.06;44.92
20955;BME280;10636;19.390;-99.256;2022-07-10T02:59:19;78351.31;;;25.05;45.42
20955;BME280;10636;19.390;-99.256;2022-07-10T03:01:48;78351.31;;;25.05;45.17
20955;BME280;10636;19.390;-99.256;2022-07-10T03:04:18;78352.59;;;25.04;45.28
20955;BME280;10636;19.390;-99.256;2022-07-10T03:06:46;78351.22;;;25.03;45.23
20955;BME280;10636;19.390;-99.256;2022-07-10T03:09:14;78359.19;;;25.01;45.22
20955;BME280;10636;19.390;-99.256;2022-07-10T03:11:43;78367.22;;;25.01;45.15
20955;BME280;10636;19.390;-99.256;2022-07-10T03:14:11;78366.53;;;25.00;45.17
20955;BME280;10636;19.390;-99.256;2022-07-10T03:16:40;78372.59;;;25.01;45.39
20955;BME280;10636;19.390;-99.256;2022-07-10T03:19:08;78371.31;;;25.02;45.28
20955;BME280;10636;19.390;-99.256;2022-07-10T03:21:38;78381.41;;;25.03;45.42
20955;BME280;10636;19.390;-99.256;2022-07-10T03:24:07;78362.72;;;24.90;45.77
20955;BME280;10636;19.390;-99.256;2022-07-10T03:26:35;78375.28;;;25.01;45.37
20955;BME280;10636;19.390;-99.256;2022-07-10T03:29:03;78384.72;;;25.02;45.60
20955;BME280;10636;19.390;-99.256;2022-07-10T03:31:32;78378.66;;;25.01;45.46
20955;BME280;10636;19.390;-99.256;2022-07-10T03:34:00;78375.28;;;25.01;45.69
20955;BME280;10636;19.390;-99.256;2022-07-10T03:36:29;78375.38;;;25.03;45.54
20955;BME280;10636;19.390;-99.256;2022-07-10T03:38:59;78380.72;;;25.03;45.47
20955;BME280;10636;19.390;-99.256;2022-07-10T03:41:28;78377.97;;;25.01;45.63
20955;BME280;10636;19.390;-99.256;2022-07-10T03:43:56;78384.72;;;25.02;45.52
20955;BME280;10636;19.390;-99.256;2022-07-10T03:46:25;78380.66;;;25.01;45.38
20955;BME280;10636;19.390;-99.256;2022-07-10T03:48:53;78385.91;;;24.99;45.24
20955;BME280;10636;19.390;-99.256;2022-07-10T03:51:21;78393.38;;;25.00;45.67
20955;BME280;10636;19.390;-99.256;2022-07-10T03:53:50;78390.59;;;24.98;45.33
20955;BME280;10636;19.390;-99.256;2022-07-10T03:56:20;78395.25;;;24.98;45.10
20955;BME280;10636;19.390;-99.256;2022-07-10T03:59:05;78399.25;;;24.97;44.97
20955;BME280;10636;19.390;-99.256;2022-07-10T04:01:33;78396.50;;;24.95;45.34
20955;BME280;10636;19.390;-99.256;2022-07-10T04:04:02;78395.19;;;24.96;45.33
20955;BME280;10636;19.390;-99.256;2022-07-10T04:06:30;78403.22;;;24.96;45.41
20955;BME280;10636;19.390;-99.256;2022-07-10T04:08:59;78404.53;;;24.95;45.24
20955;BME280;10636;19.390;-99.256;2022-07-10T04:11:29;78406.41;;;24.92;44.93
20955;BME280;10636;19.390;-99.256;2022-07-10T04:13:57;78396.31;;;24.91;45.26
20955;BME280;10636;19.390;-99.256;2022-07-10T04:16:26;78404.97;;;24.89;44.97
20955;BME280;10636;19.390;-99.256;2022-07-10T04:18:54;78404.25;;;24.89;45.23
20955;BME280;10636;19.390;-99.256;2022-07-10T04:21:23;78401.56;;;24.89;45.03
20955;BME280;10636;19.390;-99.256;2022-07-10T04:23:51;78404.25;;;24.89;45.34
20955;BME280;10636;19.390;-99.256;2022-07-10T04:26:19;78401.56;;;24.89;45.38
20955;BME280;10636;19.390;-99.256;2022-07-10T04:28:50;78414.28;;;24.88;45.41
20955;BME280;10636;19.390;-99.256;2022-07-10T04:31:18;78413.59;;;24.88;45.22
20955;BME280;10636;19.390;-99.256;2022-07-10T04:33:46;78401.47;;;24.87;45.36
20955;BME280;10636;19.390;-99.256;2022-07-10T04:36:15;78414.91;;;24.87;45.11
20955;BME280;10636;19.390;-99.256;2022-07-10T04:38:44;78402.78;;;24.86;45.11
20955;BME280;10636;19.390;-99.256;2022-07-10T04:41:12;78411.34;;;24.82;45.05
20955;BME280;10636;19.390;-99.256;2022-07-10T04:43:41;78420.06;;;24.83;45.07
20955;BME280;10636;19.390;-99.256;2022-07-10T04:46:11;78411.16;;;24.78;45.24
20955;BME280;10636;19.390;-99.256;2022-07-10T04:48:39;78412.56;;;24.79;44.99
20955;BME280;10636;19.390;-99.256;2022-07-10T04:51:08;78417.22;;;24.78;45.11
20955;BME280;10636;19.390;-99.256;2022-07-10T04:53:39;78425.16;;;24.76;45.56
20955;BME280;10636;19.390;-99.256;2022-07-10T04:56:07;78435.19;;;24.76;45.14
20955;BME280;10636;19.390;-99.256;2022-07-10T04:58:35;78424.28;;;24.72;45.37
20955;BME280;10636;19.390;-99.256;2022-07-10T05:01:04;78427.06;;;24.74;45.38
20955;BME280;10636;19.390;-99.256;2022-07-10T05:03:34;78427.75;;;24.74;45.31
20955;BME280;10636;19.390;-99.256;2022-07-10T05:06:03;78429.06;;;24.73;44.96
20955;BME280;10636;19.390;-99.256;2022-07-10T05:08:32;78431.75;;;24.73;45.13
20955;BME280;10636;19.390;-99.256;2022-07-10T05:11:00;78427.66;;;24.72;45.59
20955;BME280;10636;19.390;-99.256;2022-07-10T05:13:29;78420.91;;;24.71;45.28
20955;BME280;10636;19.390;-99.256;2022-07-10T05:15:57;78441.06;;;24.72;44.99
20955;BME280;10636;19.390;-99.256;2022-07-10T05:18:25;78439.00;;;24.71;45.16
20955;BME280;10636;19.390;-99.256;2022-07-10T05:20:55;78447.66;;;24.69;45.31
20955;BME280;10636;19.390;-99.256;2022-07-10T05:23:24;78451.63;;;24.68;44.91
20955;BME280;10636;19.390;-99.256;2022-07-10T05:25:52;78447.53;;;24.67;45.57
20955;BME280;10636;19.390;-99.256;2022-07-10T05:28:21;78444.84;;;24.67;44.99
20955;BME280;10636;19.390;-99.256;2022-07-10T05:30:49;78447.47;;;24.65;44.67
20955;BME280;10636;19.390;-99.256;2022-07-10T05:33:18;78448.66;;;24.62;45.27
20955;BME280;10636;19.390;-99.256;2022-07-10T05:35:46;78450.06;;;24.63;44.79
20955;BME280;10636;19.390;-99.256;2022-07-10T05:38:16;78453.31;;;24.62;45.24
20955;BME280;10636;19.390;-99.256;2022-07-10T05:40:45;78449.88;;;24.59;45.23
20955;BME280;10636;19.390;-99.256;2022-07-10T05:43:13;78459.91;;;24.59;45.19
20955;BME280;10636;19.390;-99.256;2022-07-10T05:45:42;78463.28;;;24.59;44.74
20955;BME280;10636;19.390;-99.256;2022-07-10T05:48:11;78455.22;;;24.59;44.98
20955;BME280;10636;19.390;-99.256;2022-07-10T05:50:39;78465.94;;;24.59;44.71
20955;BME280;10636;19.390;-99.256;2022-07-10T05:53:07;78467.13;;;24.56;44.82
20955;BME280;10636;19.390;-99.256;2022-07-10T05:55:37;78454.34;;;24.55;45.29
20955;BME280;10636;19.390;-99.256;2022-07-10T05:58:06;78456.31;;;24.54;44.66
20955;BME280;10636;19.390;-99.256;2022-07-10T06:00:35;78450.88;;;24.52;45.26
20955;BME280;10636;19.390;-99.256;2022-07-10T06:03:03;78450.88;;;24.52;45.14
20955;BME280;10636;19.390;-99.256;2022-07-10T06:05:32;78455.53;;;24.51;45.26
20955;BME280;10636;19.390;-99.256;2022-07-10T06:08:00;78455.53;;;24.51;45.08
20955;BME280;10636;19.390;-99.256;2022-07-10T06:10:28;78449.47;;;24.51;45.24
20955;BME280;10636;19.390;-99.256;2022-07-10T06:12:58;78430.69;;;24.51;44.76
20955;BME280;10636;19.390;-99.256;2022-07-10T06:15:27;78422.56;;;24.49;44.71
20955;BME280;10636;19.390;-99.256;2022-07-10T06:17:57;78419.91;;;24.49;44.94
20955;BME280;10636;19.390;-99.256;2022-07-10T06:20:26;78420.50;;;24.47;44.62
20955;BME280;10636;19.390;-99.256;2022-07-10T06:22:54;78422.50;;;24.47;44.93
20955;BME280;10636;19.390;-99.256;2022-07-10T06:25:23;78416.41;;;24.46;44.85
20955;BME280;10636;19.390;-99.256;2022-07-10T06:27:52;78413.66;;;24.44;44.56
20955;BME280;10636;19.390;-99.256;2022-07-10T06:30:22;78411.56;;;24.43;44.35
20955;BME280;10636;19.390;-99.256;2022-07-10T06:32:50;78402.84;;;24.42;44.74
20955;BME280;10636;19.390;-99.256;2022-07-10T06:35:18;78391.44;;;24.42;45.01
20955;BME280;10636;19.390;-99.256;2022-07-10T06:37:47;78396.06;;;24.41;44.30
20955;BME280;10636;19.390;-99.256;2022-07-10T06:40:15;78395.38;;;24.41;44.92
20955;BME280;10636;19.390;-99.256;2022-07-10T06:42:45;78395.38;;;24.41;44.75
20955;BME280;10636;19.390;-99.256;2022-07-10T06:45:13;78394.09;;;24.42;44.52
20955;BME280;10636;19.390;-99.256;2022-07-10T06:47:46;78406.09;;;24.41;44.54
20955;BME280;10636;19.390;-99.256;2022-07-10T06:50:24;78406.03;;;24.39;44.44
20955;BME280;10636;19.390;-99.256;2022-07-10T06:52:53;78402.03;;;24.40;44.24
20955;BME280;10636;19.390;-99.256;2022-07-10T06:55:21;78405.94;;;24.37;44.67
20955;BME280;10636;19.390;-99.256;2022-07-10T06:57:50;78409.88;;;24.36;44.48
20955;BME280;10636;19.390;-99.256;2022-07-10T07:00:19;78405.78;;;24.35;44.84
20955;BME280;10636;19.390;-99.256;2022-07-10T07:02:49;78412.47;;;24.34;44.13
20955;BME280;10636;19.390;-99.256;2022-07-10T07:05:17;78406.31;;;24.31;44.74
20955;BME280;10636;19.390;-99.256;2022-07-10T07:07:46;78402.34;;;24.32;44.50
20955;BME280;10636;19.390;-99.256;2022-07-10T07:10:17;78396.28;;;24.32;44.23
20955;BME280;10636;19.390;-99.256;2022-07-10T07:12:45;78400.97;;;24.31;44.46
20955;BME280;10636;19.390;-99.256;2022-07-10T07:15:13;78404.22;;;24.30;43.97
20955;BME280;10636;19.390;-99.256;2022-07-10T07:17:43;78394.19;;;24.30;44.22
20955;BME280;10636;19.390;-99.256;2022-07-10T07:20:26;78388.81;;;24.30;44.30
20955;BME280;10636;19.390;-99.256;2022-07-10T07:23:11;78384.06;;;24.29;44.08
20955;BME280;10636;19.390;-99.256;2022-07-10T07:25:40;78384.00;;;24.26;44.77
20955;BME280;10636;19.390;-99.256;2022-07-10T07:28:13;78382.59;;;24.25;44.59
20955;BME280;10636;19.390;-99.256;2022-07-10T07:30:44;78377.81;;;24.24;44.87
20955;BME280;10636;19.390;-99.256;2022-07-10T07:33:13;78382.50;;;24.23;44.22
20955;BME280;10636;19.390;-99.256;2022-07-10T07:35:43;78385.88;;;24.24;44.51
20955;BME280;10636;19.390;-99.256;2022-07-10T07:38:11;78369.09;;;24.23;44.90
20955;BME280;10636;19.390;-99.256;2022-07-10T07:40:40;78374.47;;;24.23;44.28
20955;BME280;10636;19.390;-99.256;2022-07-10T07:43:08;78373.06;;;24.22;44.29
20955;BME280;10636;19.390;-99.256;2022-07-10T07:45:38;78368.41;;;24.23;44.35
20955;BME280;10636;19.390;-99.256;2022-07-10T07:48:06;78375.06;;;24.22;44.73
20955;BME280;10636;19.390;-99.256;2022-07-10T07:50:36;78361.66;;;24.22;44.76
20955;BME280;10636;19.390;-99.256;2022-07-10T07:53:06;78364.22;;;24.20;44.38
20955;BME280;10636;19.390;-99.256;2022-07-10T07:55:35;78356.91;;;24.20;44.40
20955;BME280;10636;19.390;-99.256;2022-07-10T07:58:04;78347.47;;;24.19;44.90
20955;BME280;10636;19.390;-99.256;2022-07-10T08:00:32;78347.47;;;24.19;44.35
20955;BME280;10636;19.390;-99.256;2022-07-10T08:03:01;78352.81;;;24.19;44.29
20955;BME280;10636;19.390;-99.256;2022-07-10T08:05:29;78349.44;;;24.19;44.91
20955;BME280;10636;19.390;-99.256;2022-07-10T08:07:59;78348.75;;;24.18;44.71
20955;BME280;10636;19.390;-99.256;2022-07-10T08:10:33;78343.31;;;24.16;44.53
20955;BME280;10636;19.390;-99.256;2022-07-10T08:13:02;78346.00;;;24.16;45.12
20955;BME280;10636;19.390;-99.256;2022-07-10T08:15:30;78336.56;;;24.15;44.69
20955;BME280;10636;19.390;-99.256;2022-07-10T08:18:01;78336.56;;;24.15;45.02
20955;BME280;10636;19.390;-99.256;2022-07-10T08:20:31;78336.56;;;24.15;45.17
20955;BME280;10636;19.390;-99.256;2022-07-10T08:22:59;78335.84;;;24.15;44.65
20955;BME280;10636;19.390;-99.256;2022-07-10T08:25:28;78335.16;;;24.14;44.86
20955;BME280;10636;19.390;-99.256;2022-07-10T08:28:02;78341.81;;;24.13;44.75
20955;BME280;10636;19.390;-99.256;2022-07-10T08:30:32;78345.81;;;24.12;44.43
20955;BME280;10636;19.390;-99.256;2022-07-10T08:33:00;78336.38;;;24.11;44.91
20955;BME280;10636;19.390;-99.256;2022-07-10T08:35:29;78347.09;;;24.11;44.73
20955;BME280;10636;19.390;-99.256;2022-07-10T08:37:57;78335.69;;;24.11;45.27
20955;BME280;10636;19.390;-99.256;2022-07-10T08:40:32;78336.38;;;24.11;44.65
20955;BME280;10636;19.390;-99.256;2022-07-10T08:43:04;78326.97;;;24.10;45.28
20955;BME280;10636;19.390;-99.256;2022-07-10T08:45:33;78329.66;;;24.10;45.12
20955;BME280;10636;19.390;-99.256;2022-07-10T08:48:03;78326.97;;;24.10;44.71
20955;BME280;10636;19.390;-99.256;2022-07-10T08:50:33;78328.06;;;24.05;44.88
20955;BME280;10636;19.390;-99.256;2022-07-10T08:53:08;78326.16;;;24.08;45.34
20955;BME280;10636;19.390;-99.256;2022-07-10T08:55:37;78325.47;;;24.07;44.69
20955;BME280;10636;19.390;-99.256;2022-07-10T08:58:08;78320.03;;;24.05;45.21
20955;BME280;10636;19.390;-99.256;2022-07-10T09:00:37;78327.47;;;24.07;44.63
20955;BME280;10636;19.390;-99.256;2022-07-10T09:03:05;78324.69;;;24.05;45.24
20955;BME280;10636;19.390;-99.256;2022-07-10T09:05:35;78322.72;;;24.05;44.69
20955;BME280;10636;19.390;-99.256;2022-07-10T09:08:03;78327.47;;;24.07;44.77
20955;BME280;10636;19.390;-99.256;2022-07-10T09:10:32;78324.69;;;24.05;45.34
20955;BME280;10636;19.390;-99.256;2022-07-10T09:13:01;78326.66;;;24.04;45.62
20955;BME280;10636;19.390;-99.256;2022-07-10T09:15:32;78319.94;;;24.03;45.16
20955;BME280;10636;19.390;-99.256;2022-07-10T09:18:02;78324.59;;;24.03;45.43
20955;BME280;10636;19.390;-99.256;2022-07-10T09:20:35;78320.63;;;24.04;45.33
20955;BME280;10636;19.390;-99.256;2022-07-10T09:23:15;78329.25;;;24.02;45.56
20955;BME280;10636;19.390;-99.256;2022-07-10T09:25:45;78325.19;;;24.01;45.04
20955;BME280;10636;19.390;-99.256;2022-07-10T09:28:16;78323.91;;;24.02;45.57
20955;BME280;10636;19.390;-99.256;2022-07-10T09:30:47;78321.22;;;24.02;44.89
20955;BME280;10636;19.390;-99.256;2022-07-10T09:33:20;78324.59;;;24.03;44.93
20955;BME280;10636;19.390;-99.256;2022-07-10T09:36:05;78327.97;;;24.03;45.36
20955;BME280;10636;19.390;-99.256;2022-07-10T09:38:53;78325.28;;;24.03;45.55
20955;BME280;10636;19.390;-99.256;2022-07-10T09:41:27;78319.22;;;24.03;45.26
20955;BME280;10636;19.390;-99.256;2022-07-10T09:43:56;78315.88;;;24.02;45.12
20955;BME280;10636;19.390;-99.256;2022-07-10T09:46:28;78318.53;;;24.02;45.35
20955;BME280;10636;19.390;-99.256;2022-07-10T09:49:03;78319.22;;;24.03;45.24
20955;BME280;10636;19.390;-99.256;2022-07-10T09:51:33;78326.66;;;24.04;45.13
20955;BME280;10636;19.390;-99.256;2022-07-10T09:54:02;78319.94;;;24.03;44.91
20955;BME280;10636;19.390;-99.256;2022-07-10T09:56:39;78319.84;;;24.01;45.74
20955;BME280;10636;19.390;-99.256;2022-07-10T09:59:12;78322.53;;;24.01;45.64
20955;BME280;10636;19.390;-99.256;2022-07-10T10:01:45;78311.81;;;24.01;45.73
20955;BME280;10636;19.390;-99.256;2022-07-10T10:04:15;78311.13;;;24.00;45.31
20955;BME280;10636;19.390;-99.256;2022-07-10T10:06:46;78318.47;;;24.00;45.35
20955;BME280;10636;19.390;-99.256;2022-07-10T10:09:22;78318.47;;;24.00;45.04
20955;BME280;10636;19.390;-99.256;2022-07-10T10:11:56;78314.38;;;23.99;44.92
20955;BME280;10636;19.390;-99.256;2022-07-10T10:14:28;78311.00;;;23.98;45.65
20955;BME280;10636;19.390;-99.256;2022-07-10T10:16:59;78319.72;;;23.99;45.35
20955;BME280;10636;19.390;-99.256;2022-07-10T10:19:30;78315.66;;;23.98;45.66
20955;BME280;10636;19.390;-99.256;2022-07-10T10:22:18;78310.91;;;23.96;45.35
20955;BME280;10636;19.390;-99.256;2022-07-10T10:24:47;78318.34;;;23.98;45.26
20955;BME280;10636;19.390;-99.256;2022-07-10T10:27:16;78318.19;;;23.94;45.37
20955;BME280;10636;19.390;-99.256;2022-07-10T10:29:46;78324.41;;;23.98;44.89
20955;BME280;10636;19.390;-99.256;2022-07-10T10:32:17;78323.03;;;23.97;44.87
20955;BME280;10636;19.390;-99.256;2022-07-10T10:34:47;78323.72;;;23.98;45.19
20955;BME280;10636;19.390;-99.256;2022-07-10T10:37:35;78318.34;;;23.98;44.90
20955;BME280;10636;19.390;-99.256;2022-07-10T10:40:05;78322.31;;;23.97;45.28
20955;BME280;10636;19.390;-99.256;2022-07-10T10:42:36;78327.69;;;23.97;45.25
20955;BME280;10636;19.390;-99.256;2022-07-10T10:45:25;78326.31;;;23.96;44.83
20955;BME280;10636;19.390;-99.256;2022-07-10T10:48:05;78319.56;;;23.95;45.01
20955;BME280;10636;19.390;-99.256;2022-07-10T10:50:39;78324.22;;;23.94;45.30
20955;BME280;10636;19.390;-99.256;2022-07-10T10:53:16;78333.66;;;23.95;45.38
20955;BME280;10636;19.390;-99.256;2022-07-10T10:56:21;78329.59;;;23.94;45.67
20955;BME280;10636;19.390;-99.256;2022-07-10T10:58:50;78334.25;;;23.94;45.12
20955;BME280;10636;19.390;-99.256;2022-07-10T11:01:26;78330.16;;;23.93;45.65
20955;BME280;10636;19.390;-99.256;2022-07-10T11:04:20;78335.44;;;23.91;45.27
20955;BME280;10636;19.390;-99.256;2022-07-10T11:06:51;78334.06;;;23.90;45.23
20955;BME280;10636;19.390;-99.256;2022-07-10T11:09:23;78344.09;;;23.89;44.89
20955;BME280;10636;19.390;-99.256;2022-07-10T11:12:02;78338.03;;;23.89;45.79
20955;BME280;10636;19.390;-99.256;2022-07-10T11:14:32;78336.63;;;23.88;45.90
20955;BME280;10636;19.390;-99.256;2022-07-10T11:17:03;78335.44;;;23.91;45.75
20955;BME280;10636;19.390;-99.256;2022-07-10T11:19:34;78339.41;;;23.90;45.50
20955;BME280;10636;19.390;-99.256;2022-07-10T11:22:26;78343.41;;;23.89;44.98
20955;BME280;10636;19.390;-99.256;2022-07-10T11:25:10;78347.34;;;23.88;45.79
20955;BME280;10636;19.390;-99.256;2022-07-10T11:27:59;78348.63;;;23.87;45.77
20955;BME280;10636;19.390;-99.256;2022-07-10T11:30:45;78355.28;;;23.86;45.42
20955;BME280;10636;19.390;-99.256;2022-07-10T11:33:15;78349.94;;;23.86;45.03
20955;BME280;10636;19.390;-99.256;2022-07-10T11:35:49;78347.16;;;23.84;45.09
20955;BME280;10636;19.390;-99.256;2022-07-10T11:38:21;78349.84;;;23.84;45.43
20955;BME280;10636;19.390;-99.256;2022-07-10T11:40:50;78364.63;;;23.85;45.11
20955;BME280;10636;19.390;-99.256;2022-07-10T11:43:20;78361.25;;;23.84;45.80
20955;BME280;10636;19.390;-99.256;2022-07-10T11:45:50;78357.97;;;23.86;45.09
20955;BME280;10636;19.390;-99.256;2022-07-10T11:48:21;78357.97;;;23.86;45.36
20955;BME280;10636;19.390;-99.256;2022-07-10T11:50:51;78355.09;;;23.82;45.82
20955;BME280;10636;19.390;-99.256;2022-07-10T11:53:23;78357.88;;;23.84;45.30
20955;BME280;10636;19.390;-99.256;2022-07-10T11:55:52;78350.44;;;23.82;45.53
20955;BME280;10636;19.390;-99.256;2022-07-10T11:58:21;78356.47;;;23.83;45.50
20955;BME280;10636;19.390;-99.256;2022-07-10T12:01:00;78364.44;;;23.81;45.66
20955;BME280;10636;19.390;-99.256;2022-07-10T12:03:30;78360.44;;;23.82;45.78
20955;BME280;10636;19.390;-99.256;2022-07-10T12:06:05;78369.78;;;23.81;46.02
20955;BME280;10636;19.390;-99.256;2022-07-10T12:08:44;78369.09;;;23.80;45.94
20955;BME280;10636;19.390;-99.256;2022-07-10T12:11:13;78369.69;;;23.79;45.53
20955;BME280;10636;19.390;-99.256;2022-07-10T12:13:42;78375.06;;;23.79;45.82
20955;BME280;10636;19.390;-99.256;2022-07-10T12:16:11;78380.41;;;23.79;46.19
20955;BME280;10636;19.390;-99.256;2022-07-10T12:18:41;78382.41;;;23.78;46.38
20955;BME280;10636;19.390;-99.256;2022-07-10T12:21:13;78381.00;;;23.77;46.00
20955;BME280;10636;19.390;-99.256;2022-07-10T12:23:43;78386.94;;;23.76;45.94
20955;BME280;10636;19.390;-99.256;2022-07-10T12:26:12;78389.53;;;23.73;46.25
20955;BME280;10636;19.390;-99.256;2022-07-10T12:28:51;78389.53;;;23.73;46.59
20955;BME280;10636;19.390;-99.256;2022-07-10T12:31:22;78382.69;;;23.70;46.66
20955;BME280;10636;19.390;-99.256;2022-07-10T12:33:52;78387.56;;;23.74;46.32
20955;BME280;10636;19.390;-99.256;2022-07-10T12:36:23;78390.91;;;23.74;46.57
20955;BME280;10636;19.390;-99.256;2022-07-10T12:38:56;78390.91;;;23.74;46.14
20955;BME280;10636;19.390;-99.256;2022-07-10T12:41:25;78399.66;;;23.75;46.11
20955;BME280;10636;19.390;-99.256;2022-07-10T12:43:54;78402.94;;;23.73;46.81
20955;BME280;10636;19.390;-99.256;2022-07-10T12:46:23;78412.34;;;23.74;46.25
20955;BME280;10636;19.390;-99.256;2022-07-10T12:49:05;78422.94;;;23.72;47.00
20955;BME280;10636;19.390;-99.256;2022-07-10T12:51:44;78424.34;;;23.73;46.78
20955;BME280;10636;19.390;-99.256;2022-07-10T12:54:32;78422.94;;;23.72;47.14
20955;BME280;10636;19.390;-99.256;2022-07-10T12:57:01;78433.66;;;23.72;47.02